sensor_id;sensor_type;location;lat;lon;timestamp;temperature;humidity
2463;DHT22;1243;54.298;10.172;2023-06-04T00:00:50;10.20;99.90
2463;DHT22;1243;54.298;10.172;2023-06-04T00:03:16;10.20;99.90
2463;DHT22;1243;54.298;10.172;2023-06-04T00:05:42;10.20;99.90
2463;DHT22;1243;54.298;10.172;2023-06-04T00:08:07;10.20;99.90
2463;DHT22;1243;54.298;10.172;2023-06-04T00:10:33;10.20;99.90
2463;DHT22;1243;54.298;10.172;2023-06-04T00:12:59;10.10;99.90
2463;DHT22;1243;54.298;10.172;2023-06-04T00:15:25;10.00;99.90
2463;DHT22;1243;54.298;10.172;2023-06-04T00:17:51;9.90;99.90
2463;DHT22;1243;54.298;10.172;2023-06-04T00:20:17;9.80;99.90
2463;DHT22;1243;54.298;10.172;2023-06-04T00:22:43;9.80;99.90
2463;DHT22;1243;54.298;10.172;2023-06-04T00:25:10;9.70;99.90
2463;DHT22;1243;54.298;10.172;2023-06-04T00:27:36;9.70;99.90
2463;DHT22;1243;54.298;10.172;2023-06-04T00:30:03;9.70;99.90
2463;DHT22;1243;54.298;10.172;2023-06-04T00:32:28;9.70;99.90
2463;DHT22;1243;54.298;10.172;2023-06-04T00:34:55;9.80;99.90
2463;DHT22;1243;54.298;10.172;2023-06-04T00:37:27;9.70;99.90
2463;DHT22;1243;54.298;10.172;2023-06-04T00:39:52;9.80;99.90
2463;DHT22;1243;54.298;10.172;2023-06-04T00:42:18;9.80;99.90
2463;DHT22;1243;54.298;10.172;2023-06-04T00:44:44;9.80;99.90
2463;DHT22;1243;54.298;10.172;2023-06-04T00:47:14;9.70;99.90
2463;DHT22;1243;54.298;10.172;2023-06-04T00:49:41;9.70;99.90
2463;DHT22;1243;54.298;10.172;2023-06-04T00:52:08;9.60;99.90
2463;DHT22;1243;54.298;10.172;2023-06-04T00:54:35;9.60;99.90
2463;DHT22;1243;54.298;10.172;2023-06-04T00:57:01;9.60;99.90
2463;DHT22;1243;54.298;10.172;2023-06-04T00:59:31;9.60;99.90
2463;DHT22;1243;54.298;10.172;2023-06-04T01:02:11;9.60;99.90
2463;DHT22;1243;54.298;10.172;2023-06-04T01:05:03;9.60;99.90
2463;DHT22;1243;54.298;10.172;2023-06-04T01:07:35;9.50;99.90
2463;DHT22;1243;54.298;10.172;2023-06-04T01:10:02;9.50;99.90
2463;DHT22;1243;54.298;10.172;2023-06-04T01:12:28;9.50;99.90
2463;DHT22;1243;54.298;10.172;2023-06-04T01:14:54;9.50;99.90
2463;DHT22;1243;54.298;10.172;2023-06-04T01:17:25;9.50;99.90
2463;DHT22;1243;54.298;10.172;2023-06-04T01:20:13;9.50;99.90
2463;DHT22;1243;54.298;10.172;2023-06-04T01:25:36;9.50;99.90
2463;DHT22;1243;54.298;10.172;2023-06-04T01:28:06;9.50;99.90
2463;DHT22;1243;54.298;10.172;2023-06-04T01:30:36;9.50;99.90
2463;DHT22;1243;54.298;10.172;2023-06-04T01:33:09;9.50;99.90
2463;DHT22;1243;54.298;10.172;2023-06-04T01:35:39;9.40;99.90
2463;DHT22;1243;54.298;10.172;2023-06-04T01:38:05;9.40;99.90
2463;DHT22;1243;54.298;10.172;2023-06-04T01:40:31;9.40;99.90
2463;DHT22;1243;54.298;10.172;2023-06-04T01:42:58;9.40;99.90
2463;DHT22;1243;54.298;10.172;2023-06-04T01:45:25;9.40;99.90
2463;DHT22;1243;54.298;10.172;2023-06-04T01:47:52;9.30;99.90
2463;DHT22;1243;54.298;10.172;2023-06-04T01:50:18;9.30;99.90
2463;DHT22;1243;54.298;10.172;2023-06-04T01:52:44;9.30;99.90
2463;DHT22;1243;54.298;10.172;2023-06-04T01:55:13;9.30;99.90
2463;DHT22;1243;54.298;10.172;2023-06-04T01:57:44;9.30;99.90
2463;DHT22;1243;54.298;10.172;2023-06-04T02:00:11;9.30;99.90
2463;DHT22;1243;54.298;10.172;2023-06-04T02:02:38;9.30;99.90
2463;DHT22;1243;54.298;10.172;2023-06-04T02:05:07;9.20;99.90
2463;DHT22;1243;54.298;10.172;2023-06-04T02:07:34;9.20;99.90
2463;DHT22;1243;54.298;10.172;2023-06-04T02:10:00;9.10;99.90
2463;DHT22;1243;54.298;10.172;2023-06-04T02:12:26;9.10;99.90
2463;DHT22;1243;54.298;10.172;2023-06-04T02:14:52;9.10;99.90
2463;DHT22;1243;54.298;10.172;2023-06-04T02:17:17;9.10;99.90
2463;DHT22;1243;54.298;10.172;2023-06-04T02:19:44;9.00;99.90
2463;DHT22;1243;54.298;10.172;2023-06-04T02:22:13;9.00;99.90
2463;DHT22;1243;54.298;10.172;2023-06-04T02:24:39;9.00;99.90
2463;DHT22;1243;54.298;10.172;2023-06-04T02:27:08;9.00;99.90
2463;DHT22;1243;54.298;10.172;2023-06-04T02:29:34;9.00;99.90
2463;DHT22;1243;54.298;10.172;2023-06-04T02:32:01;8.90;99.90
2463;DHT22;1243;54.298;10.172;2023-06-04T02:34:26;8.90;99.90
2463;DHT22;1243;54.298;10.172;2023-06-04T02:36:52;8.90;99.90
2463;DHT22;1243;54.298;10.172;2023-06-04T02:39:19;8.90;99.90
2463;DHT22;1243;54.298;10.172;2023-06-04T02:41:45;8.90;99.90
2463;DHT22;1243;54.298;10.172;2023-06-04T02:44:11;8.80;99.90
2463;DHT22;1243;54.298;10.172;2023-06-04T02:46:40;8.80;99.90
2463;DHT22;1243;54.298;10.172;2023-06-04T02:49:06;8.80;99.90
2463;DHT22;1243;54.298;10.172;2023-06-04T02:51:31;8.80;99.90
2463;DHT22;1243;54.298;10.172;2023-06-04T02:53:58;8.80;99.90
2463;DHT22;1243;54.298;10.172;2023-06-04T02:56:24;8.80;99.90
2463;DHT22;1243;54.298;10.172;2023-06-04T02:58:54;8.80;99.90
2463;DHT22;1243;54.298;10.172;2023-06-04T03:01:22;8.70;99.90
2463;DHT22;1243;54.298;10.172;2023-06-04T03:03:48;8.70;99.90
2463;DHT22;1243;54.298;10.172;2023-06-04T03:06:15;8.60;99.90
2463;DHT22;1243;54.298;10.172;2023-06-04T03:08:41;8.60;99.90
2463;DHT22;1243;54.298;10.172;2023-06-04T03:11:07;8.60;99.90
2463;DHT22;1243;54.298;10.172;2023-06-04T03:13:33;8.70;99.90
2463;DHT22;1243;54.298;10.172;2023-06-04T03:15:59;8.70;99.90
2463;DHT22;1243;54.298;10.172;2023-06-04T03:18:30;8.70;99.90
2463;DHT22;1243;54.298;10.172;2023-06-04T03:20:56;8.70;99.90
2463;DHT22;1243;54.298;10.172;2023-06-04T03:23:22;8.70;99.90
2463;DHT22;1243;54.298;10.172;2023-06-04T03:25:48;8.60;99.90
2463;DHT22;1243;54.298;10.172;2023-06-04T03:28:14;8.60;99.90
2463;DHT22;1243;54.298;10.172;2023-06-04T03:30:40;8.60;99.90
2463;DHT22;1243;54.298;10.172;2023-06-04T03:33:07;8.60;99.90
2463;DHT22;1243;54.298;10.172;2023-06-04T03:35:32;8.60;99.90
2463;DHT22;1243;54.298;10.172;2023-06-04T03:37:58;8.60;99.90
2463;DHT22;1243;54.298;10.172;2023-06-04T03:40:24;8.50;99.90
2463;DHT22;1243;54.298;10.172;2023-06-04T03:42:50;8.60;99.90
2463;DHT22;1243;54.298;10.172;2023-06-04T03:45:15;8.60;99.90
2463;DHT22;1243;54.298;10.172;2023-06-04T03:47:41;8.60;99.90
2463;DHT22;1243;54.298;10.172;2023-06-04T03:50:07;8.70;99.90
2463;DHT22;1243;54.298;10.172;2023-06-04T03:52:33;8.70;1.00
2463;DHT22;1243;54.298;10.172;2023-06-04T03:54:58;8.70;1.00
2463;DHT22;1243;54.298;10.172;2023-06-04T03:57:25;8.80;1.00
2463;DHT22;1243;54.298;10.172;2023-06-04T03:59:52;8.80;1.00
2463;DHT22;1243;54.298;10.172;2023-06-04T04:02:18;8.90;1.00
2463;DHT22;1243;54.298;10.172;2023-06-04T04:04:44;8.90;1.00
2463;DHT22;1243;54.298;10.172;2023-06-04T04:07:10;9.00;1.00
2463;DHT22;1243;54.298;10.172;2023-06-04T04:09:36;9.00;1.00
2463;DHT22;1243;54.298;10.172;2023-06-04T04:12:03;9.10;1.00
2463;DHT22;1243;54.298;10.172;2023-06-04T04:14:29;9.20;1.00
2463;DHT22;1243;54.298;10.172;2023-06-04T04:16:54;9.30;1.00
2463;DHT22;1243;54.298;10.172;2023-06-04T04:19:20;9.30;1.00
2463;DHT22;1243;54.298;10.172;2023-06-04T04:21:47;9.40;1.00
2463;DHT22;1243;54.298;10.172;2023-06-04T04:24:25;9.40;1.00
2463;DHT22;1243;54.298;10.172;2023-06-04T04:26:51;9.50;1.00
2463;DHT22;1243;54.298;10.172;2023-06-04T04:29:21;9.60;1.00
2463;DHT22;1243;54.298;10.172;2023-06-04T04:31:51;9.70;1.00
2463;DHT22;1243;54.298;10.172;2023-06-04T04:34:17;9.70;1.00
2463;DHT22;1243;54.298;10.172;2023-06-04T04:36:45;9.80;1.00
2463;DHT22;1243;54.298;10.172;2023-06-04T04:39:27;9.90;1.00
2463;DHT22;1243;54.298;10.172;2023-06-04T04:41:54;10.00;1.00
2463;DHT22;1243;54.298;10.172;2023-06-04T04:44:20;10.00;1.00
2463;DHT22;1243;54.298;10.172;2023-06-04T04:46:47;10.10;1.00
2463;DHT22;1243;54.298;10.172;2023-06-04T04:49:13;10.20;1.00
2463;DHT22;1243;54.298;10.172;2023-06-04T04:51:39;10.30;1.00
2463;DHT22;1243;54.298;10.172;2023-06-04T04:54:05;10.30;1.00
2463;DHT22;1243;54.298;10.172;2023-06-04T04:56:33;10.40;1.00
2463;DHT22;1243;54.298;10.172;2023-06-04T04:59:02;10.50;1.00
2463;DHT22;1243;54.298;10.172;2023-06-04T05:01:28;10.50;1.00
2463;DHT22;1243;54.298;10.172;2023-06-04T05:03:54;10.60;1.00
2463;DHT22;1243;54.298;10.172;2023-06-04T05:06:19;10.70;1.00
2463;DHT22;1243;54.298;10.172;2023-06-04T05:08:47;10.70;1.00
2463;DHT22;1243;54.298;10.172;2023-06-04T05:11:13;10.90;1.00
2463;DHT22;1243;54.298;10.172;2023-06-04T05:13:39;10.90;1.00
2463;DHT22;1243;54.298;10.172;2023-06-04T05:16:07;11.00;1.00
2463;DHT22;1243;54.298;10.172;2023-06-04T05:18:34;11.10;1.00
2463;DHT22;1243;54.298;10.172;2023-06-04T05:21:00;11.10;1.00
2463;DHT22;1243;54.298;10.172;2023-06-04T05:23:28;11.20;1.00
2463;DHT22;1243;54.298;10.172;2023-06-04T05:25:54;11.30;1.00
2463;DHT22;1243;54.298;10.172;2023-06-04T05:28:20;11.30;1.00
2463;DHT22;1243;54.298;10.172;2023-06-04T05:30:49;11.40;1.00
2463;DHT22;1243;54.298;10.172;2023-06-04T05:33:15;11.50;1.00
2463;DHT22;1243;54.298;10.172;2023-06-04T05:35:47;11.50;1.00
2463;DHT22;1243;54.298;10.172;2023-06-04T05:38:17;11.60;1.00
2463;DHT22;1243;54.298;10.172;2023-06-04T05:40:52;11.70;1.00
2463;DHT22;1243;54.298;10.172;2023-06-04T05:43:21;11.70;1.00
2463;DHT22;1243;54.298;10.172;2023-06-04T05:45:47;11.70;1.00
2463;DHT22;1243;54.298;10.172;2023-06-04T05:48:13;11.80;1.00
2463;DHT22;1243;54.298;10.172;2023-06-04T05:50:39;11.80;1.00
2463;DHT22;1243;54.298;10.172;2023-06-04T05:53:05;11.80;1.00
2463;DHT22;1243;54.298;10.172;2023-06-04T05:55:30;11.80;1.00
2463;DHT22;1243;54.298;10.172;2023-06-04T05:57:56;11.90;1.00
2463;DHT22;1243;54.298;10.172;2023-06-04T06:00:22;11.90;1.00
2463;DHT22;1243;54.298;10.172;2023-06-04T06:02:51;12.00;1.00
2463;DHT22;1243;54.298;10.172;2023-06-04T06:05:20;12.00;1.00
2463;DHT22;1243;54.298;10.172;2023-06-04T06:07:46;12.00;1.00
2463;DHT22;1243;54.298;10.172;2023-06-04T06:10:13;12.10;1.00
2463;DHT22;1243;54.298;10.172;2023-06-04T06:12:39;12.10;1.00
2463;DHT22;1243;54.298;10.172;2023-06-04T06:15:05;12.10;1.00
2463;DHT22;1243;54.298;10.172;2023-06-04T06:17:31;12.10;1.00
2463;DHT22;1243;54.298;10.172;2023-06-04T06:19:58;12.20;1.00
2463;DHT22;1243;54.298;10.172;2023-06-04T06:22:24;12.30;1.00
2463;DHT22;1243;54.298;10.172;2023-06-04T06:24:50;12.40;1.00
2463;DHT22;1243;54.298;10.172;2023-06-04T06:27:16;12.40;1.00
2463;DHT22;1243;54.298;10.172;2023-06-04T06:29:43;12.50;1.00
2463;DHT22;1243;54.298;10.172;2023-06-04T06:32:10;12.70;1.00
2463;DHT22;1243;54.298;10.172;2023-06-04T06:34:36;12.60;1.00
2463;DHT22;1243;54.298;10.172;2023-06-04T06:37:02;12.70;1.00
2463;DHT22;1243;54.298;10.172;2023-06-04T06:39:28;12.80;1.00
2463;DHT22;1243;54.298;10.172;2023-06-04T06:41:54;12.90;1.00
2463;DHT22;1243;54.298;10.172;2023-06-04T06:44:20;12.90;1.00
2463;DHT22;1243;54.298;10.172;2023-06-04T06:46:46;12.90;1.00
2463;DHT22;1243;54.298;10.172;2023-06-04T06:49:14;12.90;1.00
2463;DHT22;1243;54.298;10.172;2023-06-04T06:51:40;13.00;1.00
2463;DHT22;1243;54.298;10.172;2023-06-04T06:54:08;13.10;1.00
2463;DHT22;1243;54.298;10.172;2023-06-04T06:56:34;13.10;1.00
2463;DHT22;1243;54.298;10.172;2023-06-04T06:58:59;13.20;99.90
2463;DHT22;1243;54.298;10.172;2023-06-04T07:01:26;13.30;99.90
2463;DHT22;1243;54.298;10.172;2023-06-04T07:03:52;13.40;99.90
2463;DHT22;1243;54.298;10.172;2023-06-04T07:06:17;13.40;99.90
2463;DHT22;1243;54.298;10.172;2023-06-04T07:08:46;13.40;99.90
2463;DHT22;1243;54.298;10.172;2023-06-04T07:11:13;13.40;99.90
2463;DHT22;1243;54.298;10.172;2023-06-04T07:13:39;13.50;99.90
2463;DHT22;1243;54.298;10.172;2023-06-04T07:16:05;13.60;99.90
2463;DHT22;1243;54.298;10.172;2023-06-04T07:18:31;13.70;99.90
2463;DHT22;1243;54.298;10.172;2023-06-04T07:20:58;13.80;99.90
2463;DHT22;1243;54.298;10.172;2023-06-04T07:23:24;13.90;99.90
2463;DHT22;1243;54.298;10.172;2023-06-04T07:25:49;14.00;99.90
2463;DHT22;1243;54.298;10.172;2023-06-04T07:28:15;14.10;99.90
2463;DHT22;1243;54.298;10.172;2023-06-04T07:30:41;14.10;99.90
2463;DHT22;1243;54.298;10.172;2023-06-04T07:33:07;14.10;99.90
2463;DHT22;1243;54.298;10.172;2023-06-04T07:35:32;14.30;99.90
2463;DHT22;1243;54.298;10.172;2023-06-04T07:37:58;14.40;99.90
2463;DHT22;1243;54.298;10.172;2023-06-04T07:40:24;14.50;99.90
2463;DHT22;1243;54.298;10.172;2023-06-04T07:42:50;14.50;99.90
2463;DHT22;1243;54.298;10.172;2023-06-04T07:45:16;14.60;99.90
2463;DHT22;1243;54.298;10.172;2023-06-04T07:47:42;14.70;99.90
2463;DHT22;1243;54.298;10.172;2023-06-04T07:50:08;14.90;99.90
2463;DHT22;1243;54.298;10.172;2023-06-04T07:52:34;15.00;99.90
2463;DHT22;1243;54.298;10.172;2023-06-04T07:55:00;15.10;99.90
2463;DHT22;1243;54.298;10.172;2023-06-04T07:57:26;15.20;99.90
2463;DHT22;1243;54.298;10.172;2023-06-04T07:59:52;15.30;99.90
2463;DHT22;1243;54.298;10.172;2023-06-04T08:02:18;15.40;99.90
2463;DHT22;1243;54.298;10.172;2023-06-04T08:04:45;15.40;99.90
2463;DHT22;1243;54.298;10.172;2023-06-04T08:07:12;15.50;99.90
2463;DHT22;1243;54.298;10.172;2023-06-04T08:09:38;15.50;99.90
2463;DHT22;1243;54.298;10.172;2023-06-04T08:12:04;15.60;99.90
2463;DHT22;1243;54.298;10.172;2023-06-04T08:14:29;15.70;99.90
2463;DHT22;1243;54.298;10.172;2023-06-04T08:16:55;15.70;99.90
2463;DHT22;1243;54.298;10.172;2023-06-04T08:19:21;15.80;99.90
2463;DHT22;1243;54.298;10.172;2023-06-04T08:21:49;15.90;99.90
2463;DHT22;1243;54.298;10.172;2023-06-04T08:24:15;15.90;99.90
2463;DHT22;1243;54.298;10.172;2023-06-04T08:26:40;15.90;99.90
2463;DHT22;1243;54.298;10.172;2023-06-04T08:29:07;15.80;99.90
2463;DHT22;1243;54.298;10.172;2023-06-04T08:31:33;15.80;99.90
2463;DHT22;1243;54.298;10.172;2023-06-04T08:33:59;15.90;99.90
2463;DHT22;1243;54.298;10.172;2023-06-04T08:36:24;16.00;99.90
2463;DHT22;1243;54.298;10.172;2023-06-04T08:38:51;16.10;99.90
2463;DHT22;1243;54.298;10.172;2023-06-04T08:44:05;16.40;99.90
2463;DHT22;1243;54.298;10.172;2023-06-04T08:46:37;16.50;99.90
2463;DHT22;1243;54.298;10.172;2023-06-04T08:49:05;16.60;99.90
2463;DHT22;1243;54.298;10.172;2023-06-04T08:51:34;16.80;99.90
2463;DHT22;1243;54.298;10.172;2023-06-04T08:54:06;17.00;99.90
2463;DHT22;1243;54.298;10.172;2023-06-04T08:56:33;17.20;99.90
2463;DHT22;1243;54.298;10.172;2023-06-04T08:59:03;17.40;99.90
2463;DHT22;1243;54.298;10.172;2023-06-04T09:01:33;17.60;99.90
2463;DHT22;1243;54.298;10.172;2023-06-04T09:04:01;17.70;99.90
2463;DHT22;1243;54.298;10.172;2023-06-04T09:06:29;18.00;99.90
2463;DHT22;1243;54.298;10.172;2023-06-04T09:08:57;18.10;99.90
2463;DHT22;1243;54.298;10.172;2023-06-04T09:11:35;18.30;99.90
2463;DHT22;1243;54.298;10.172;2023-06-04T09:14:04;18.40;99.90
2463;DHT22;1243;54.298;10.172;2023-06-04T09:16:34;18.40;99.90
2463;DHT22;1243;54.298;10.172;2023-06-04T09:19:07;18.60;99.90
2463;DHT22;1243;54.298;10.172;2023-06-04T09:21:33;18.80;99.90
2463;DHT22;1243;54.298;10.172;2023-06-04T09:23:58;19.00;99.90
2463;DHT22;1243;54.298;10.172;2023-06-04T09:26:24;19.20;99.90
2463;DHT22;1243;54.298;10.172;2023-06-04T09:28:51;19.30;99.90
2463;DHT22;1243;54.298;10.172;2023-06-04T09:31:20;19.30;99.90
2463;DHT22;1243;54.298;10.172;2023-06-04T09:33:49;19.60;99.90
2463;DHT22;1243;54.298;10.172;2023-06-04T09:36:15;19.90;99.90
2463;DHT22;1243;54.298;10.172;2023-06-04T09:38:41;20.00;99.90
2463;DHT22;1243;54.298;10.172;2023-06-04T09:41:14;20.00;99.90
2463;DHT22;1243;54.298;10.172;2023-06-04T09:43:40;20.30;99.90
2463;DHT22;1243;54.298;10.172;2023-06-04T09:46:13;20.50;99.90
2463;DHT22;1243;54.298;10.172;2023-06-04T09:48:40;20.80;99.90
2463;DHT22;1243;54.298;10.172;2023-06-04T09:51:10;21.00;99.90
2463;DHT22;1243;54.298;10.172;2023-06-04T09:53:38;21.30;99.90
2463;DHT22;1243;54.298;10.172;2023-06-04T09:56:05;21.70;99.90
2463;DHT22;1243;54.298;10.172;2023-06-04T09:58:37;22.00;99.90
2463;DHT22;1243;54.298;10.172;2023-06-04T10:01:04;22.30;99.90
2463;DHT22;1243;54.298;10.172;2023-06-04T10:03:31;22.50;99.90
2463;DHT22;1243;54.298;10.172;2023-06-04T10:05:59;22.30;99.90
2463;DHT22;1243;54.298;10.172;2023-06-04T10:08:27;22.50;99.90
2463;DHT22;1243;54.298;10.172;2023-06-04T10:10:56;22.60;99.90
2463;DHT22;1243;54.298;10.172;2023-06-04T10:13:27;22.70;99.90
2463;DHT22;1243;54.298;10.172;2023-06-04T10:15:57;22.90;99.90
2463;DHT22;1243;54.298;10.172;2023-06-04T10:18:24;23.00;99.90
2463;DHT22;1243;54.298;10.172;2023-06-04T10:20:53;23.20;99.90
2463;DHT22;1243;54.298;10.172;2023-06-04T10:23:20;23.50;99.90
2463;DHT22;1243;54.298;10.172;2023-06-04T10:25:48;23.60;99.90
2463;DHT22;1243;54.298;10.172;2023-06-04T10:28:15;23.90;99.90
2463;DHT22;1243;54.298;10.172;2023-06-04T10:30:43;24.30;99.90
2463;DHT22;1243;54.298;10.172;2023-06-04T10:33:09;24.30;99.90
2463;DHT22;1243;54.298;10.172;2023-06-04T10:35:35;24.30;99.90
2463;DHT22;1243;54.298;10.172;2023-06-04T10:38:06;24.40;99.90
2463;DHT22;1243;54.298;10.172;2023-06-04T10:40:33;24.60;99.90
2463;DHT22;1243;54.298;10.172;2023-06-04T10:43:05;24.50;99.90
2463;DHT22;1243;54.298;10.172;2023-06-04T10:45:31;24.30;99.90
2463;DHT22;1243;54.298;10.172;2023-06-04T10:48:00;24.20;99.90
2463;DHT22;1243;54.298;10.172;2023-06-04T10:50:26;24.20;99.90
2463;DHT22;1243;54.298;10.172;2023-06-04T10:52:54;24.20;99.90
2463;DHT22;1243;54.298;10.172;2023-06-04T10:55:20;24.40;99.90
2463;DHT22;1243;54.298;10.172;2023-06-04T10:58:00;24.60;99.90
2463;DHT22;1243;54.298;10.172;2023-06-04T11:00:43;24.50;99.90
2463;DHT22;1243;54.298;10.172;2023-06-04T11:03:12;24.40;99.90
2463;DHT22;1243;54.298;10.172;2023-06-04T11:05:39;24.80;99.90
2463;DHT22;1243;54.298;10.172;2023-06-04T11:08:05;24.80;99.90
2463;DHT22;1243;54.298;10.172;2023-06-04T11:10:33;25.10;99.90
2463;DHT22;1243;54.298;10.172;2023-06-04T11:12:59;25.20;99.90
2463;DHT22;1243;54.298;10.172;2023-06-04T11:15:25;25.20;99.90
2463;DHT22;1243;54.298;10.172;2023-06-04T11:17:51;25.30;99.90
2463;DHT22;1243;54.298;10.172;2023-06-04T11:20:18;25.80;99.90
2463;DHT22;1243;54.298;10.172;2023-06-04T11:22:58;25.90;99.90
2463;DHT22;1243;54.298;10.172;2023-06-04T11:25:29;25.90;99.90
2463;DHT22;1243;54.298;10.172;2023-06-04T11:27:56;25.80;99.90
2463;DHT22;1243;54.298;10.172;2023-06-04T11:30:24;25.70;99.90
2463;DHT22;1243;54.298;10.172;2023-06-04T11:32:50;25.80;99.90
2463;DHT22;1243;54.298;10.172;2023-06-04T11:35:24;26.20;99.90
2463;DHT22;1243;54.298;10.172;2023-06-04T11:37:57;26.60;99.90
2463;DHT22;1243;54.298;10.172;2023-06-04T11:40:24;26.70;99.90
2463;DHT22;1243;54.298;10.172;2023-06-04T11:42:52;26.60;99.90
2463;DHT22;1243;54.298;10.172;2023-06-04T11:45:19;27.00;99.90
2463;DHT22;1243;54.298;10.172;2023-06-04T11:47:50;27.20;99.90
2463;DHT22;1243;54.298;10.172;2023-06-04T11:50:16;27.10;99.90
2463;DHT22;1243;54.298;10.172;2023-06-04T11:52:43;27.30;99.90
2463;DHT22;1243;54.298;10.172;2023-06-04T11:55:10;27.50;99.90
2463;DHT22;1243;54.298;10.172;2023-06-04T11:57:40;27.60;99.90
2463;DHT22;1243;54.298;10.172;2023-06-04T12:00:09;27.50;99.90
2463;DHT22;1243;54.298;10.172;2023-06-04T12:02:38;27.70;99.90
2463;DHT22;1243;54.298;10.172;2023-06-04T12:05:14;27.70;99.90
2463;DHT22;1243;54.298;10.172;2023-06-04T12:07:40;28.00;99.90
2463;DHT22;1243;54.298;10.172;2023-06-04T12:10:07;28.20;99.90
2463;DHT22;1243;54.298;10.172;2023-06-04T12:12:34;28.60;99.90
2463;DHT22;1243;54.298;10.172;2023-06-04T12:15:01;28.80;99.90
2463;DHT22;1243;54.298;10.172;2023-06-04T12:17:26;29.10;99.90
2463;DHT22;1243;54.298;10.172;2023-06-04T12:19:52;29.20;99.90
2463;DHT22;1243;54.298;10.172;2023-06-04T12:22:18;28.80;99.90
2463;DHT22;1243;54.298;10.172;2023-06-04T12:24:57;28.60;99.90
2463;DHT22;1243;54.298;10.172;2023-06-04T12:27:26;28.80;99.90
2463;DHT22;1243;54.298;10.172;2023-06-04T12:30:03;29.00;99.90
2463;DHT22;1243;54.298;10.172;2023-06-04T12:32:29;29.00;99.90
2463;DHT22;1243;54.298;10.172;2023-06-04T12:34:55;28.60;99.90
2463;DHT22;1243;54.298;10.172;2023-06-04T12:37:24;28.60;99.90
2463;DHT22;1243;54.298;10.172;2023-06-04T12:39:53;28.40;99.90
2463;DHT22;1243;54.298;10.172;2023-06-04T12:42:20;28.30;99.90
2463;DHT22;1243;54.298;10.172;2023-06-04T12:44:46;28.10;99.90
2463;DHT22;1243;54.298;10.172;2023-06-04T12:47:12;27.70;99.90
2463;DHT22;1243;54.298;10.172;2023-06-04T12:49:38;27.30;99.90
2463;DHT22;1243;54.298;10.172;2023-06-04T12:52:04;27.00;99.90
2463;DHT22;1243;54.298;10.172;2023-06-04T12:54:31;26.60;99.90
2463;DHT22;1243;54.298;10.172;2023-06-04T12:56:58;26.50;99.90
2463;DHT22;1243;54.298;10.172;2023-06-04T12:59:27;26.70;99.90
2463;DHT22;1243;54.298;10.172;2023-06-04T13:01:56;26.40;99.90
2463;DHT22;1243;54.298;10.172;2023-06-04T13:04:22;25.80;99.90
2463;DHT22;1243;54.298;10.172;2023-06-04T13:06:49;25.00;99.90
2463;DHT22;1243;54.298;10.172;2023-06-04T13:09:17;24.90;99.90
2463;DHT22;1243;54.298;10.172;2023-06-04T13:11:46;25.70;99.90
2463;DHT22;1243;54.298;10.172;2023-06-04T13:14:11;26.50;99.90
2463;DHT22;1243;54.298;10.172;2023-06-04T13:16:40;27.40;99.90
2463;DHT22;1243;54.298;10.172;2023-06-04T13:19:06;27.80;99.90
2463;DHT22;1243;54.298;10.172;2023-06-04T13:21:32;27.60;99.90
2463;DHT22;1243;54.298;10.172;2023-06-04T13:23:58;27.70;99.90
2463;DHT22;1243;54.298;10.172;2023-06-04T13:26:24;27.10;99.90
2463;DHT22;1243;54.298;10.172;2023-06-04T13:28:51;26.50;99.90
2463;DHT22;1243;54.298;10.172;2023-06-04T13:31:16;26.00;99.90
2463;DHT22;1243;54.298;10.172;2023-06-04T13:33:42;25.60;99.90
2463;DHT22;1243;54.298;10.172;2023-06-04T13:36:08;25.00;99.90
2463;DHT22;1243;54.298;10.172;2023-06-04T13:38:34;24.80;99.90
2463;DHT22;1243;54.298;10.172;2023-06-04T13:41:00;24.80;99.90
2463;DHT22;1243;54.298;10.172;2023-06-04T13:43:25;24.90;99.90
2463;DHT22;1243;54.298;10.172;2023-06-04T13:45:51;24.50;99.90
2463;DHT22;1243;54.298;10.172;2023-06-04T13:48:17;24.30;99.90
2463;DHT22;1243;54.298;10.172;2023-06-04T13:50:43;24.10;99.90
2463;DHT22;1243;54.298;10.172;2023-06-04T13:53:09;23.80;99.90
2463;DHT22;1243;54.298;10.172;2023-06-04T13:55:35;23.60;99.90
2463;DHT22;1243;54.298;10.172;2023-06-04T13:58:01;23.10;99.90
2463;DHT22;1243;54.298;10.172;2023-06-04T14:00:26;22.90;99.90
2463;DHT22;1243;54.298;10.172;2023-06-04T14:02:56;23.00;99.90
2463;DHT22;1243;54.298;10.172;2023-06-04T14:05:22;23.00;99.90
2463;DHT22;1243;54.298;10.172;2023-06-04T14:07:51;23.20;99.90
2463;DHT22;1243;54.298;10.172;2023-06-04T14:10:17;22.80;99.90
2463;DHT22;1243;54.298;10.172;2023-06-04T14:12:42;22.50;99.90
2463;DHT22;1243;54.298;10.172;2023-06-04T14:15:09;22.20;99.90
2463;DHT22;1243;54.298;10.172;2023-06-04T14:17:37;21.60;99.90
2463;DHT22;1243;54.298;10.172;2023-06-04T14:20:04;21.40;99.90
2463;DHT22;1243;54.298;10.172;2023-06-04T14:22:39;21.50;99.90
2463;DHT22;1243;54.298;10.172;2023-06-04T14:25:06;21.70;99.90
2463;DHT22;1243;54.298;10.172;2023-06-04T14:27:33;21.30;99.90
2463;DHT22;1243;54.298;10.172;2023-06-04T14:29:59;21.10;99.90
2463;DHT22;1243;54.298;10.172;2023-06-04T14:32:25;20.90;99.90
2463;DHT22;1243;54.298;10.172;2023-06-04T14:34:51;21.10;99.90
2463;DHT22;1243;54.298;10.172;2023-06-04T14:37:16;21.00;99.90
2463;DHT22;1243;54.298;10.172;2023-06-04T14:39:42;20.90;99.90
2463;DHT22;1243;54.298;10.172;2023-06-04T14:42:08;20.90;99.90
2463;DHT22;1243;54.298;10.172;2023-06-04T14:44:34;20.90;99.90
2463;DHT22;1243;54.298;10.172;2023-06-04T14:46:59;20.60;99.90
2463;DHT22;1243;54.298;10.172;2023-06-04T14:49:25;20.40;99.90
2463;DHT22;1243;54.298;10.172;2023-06-04T14:51:53;20.60;99.90
2463;DHT22;1243;54.298;10.172;2023-06-04T14:54:19;20.80;99.90
2463;DHT22;1243;54.298;10.172;2023-06-04T14:56:46;21.00;99.90
2463;DHT22;1243;54.298;10.172;2023-06-04T14:59:11;20.80;99.90
2463;DHT22;1243;54.298;10.172;2023-06-04T15:01:41;20.40;99.90
2463;DHT22;1243;54.298;10.172;2023-06-04T15:04:07;20.60;99.90
2463;DHT22;1243;54.298;10.172;2023-06-04T15:06:33;20.60;99.90
2463;DHT22;1243;54.298;10.172;2023-06-04T15:09:01;20.80;99.90
2463;DHT22;1243;54.298;10.172;2023-06-04T15:11:27;21.00;99.90
2463;DHT22;1243;54.298;10.172;2023-06-04T15:13:53;20.80;99.90
2463;DHT22;1243;54.298;10.172;2023-06-04T15:16:19;20.70;99.90
2463;DHT22;1243;54.298;10.172;2023-06-04T15:18:45;20.80;99.90
2463;DHT22;1243;54.298;10.172;2023-06-04T15:21:11;20.40;99.90
2463;DHT22;1243;54.298;10.172;2023-06-04T15:23:37;20.10;99.90
2463;DHT22;1243;54.298;10.172;2023-06-04T15:26:03;20.00;99.90
2463;DHT22;1243;54.298;10.172;2023-06-04T15:28:28;19.90;99.90
2463;DHT22;1243;54.298;10.172;2023-06-04T15:30:54;19.90;99.90
2463;DHT22;1243;54.298;10.172;2023-06-04T15:33:20;19.80;99.90
2463;DHT22;1243;54.298;10.172;2023-06-04T15:35:45;20.00;99.90
2463;DHT22;1243;54.298;10.172;2023-06-04T15:38:11;20.30;99.90
2463;DHT22;1243;54.298;10.172;2023-06-04T15:40:37;20.70;99.90
2463;DHT22;1243;54.298;10.172;2023-06-04T15:43:03;20.60;99.90
2463;DHT22;1243;54.298;10.172;2023-06-04T15:45:28;20.40;99.90
2463;DHT22;1243;54.298;10.172;2023-06-04T15:47:54;20.50;99.90
2463;DHT22;1243;54.298;10.172;2023-06-04T15:50:20;21.40;99.90
2463;DHT22;1243;54.298;10.172;2023-06-04T15:52:46;22.30;99.90
2463;DHT22;1243;54.298;10.172;2023-06-04T15:55:12;22.00;99.90
2463;DHT22;1243;54.298;10.172;2023-06-04T15:57:38;21.40;99.90